Woodhull, New York
Current Conditions -  °F | °C
As of 10:55 PM on Tuesday 21 Oct 2014 (Local Time) from KN38 Reporting Station
Overcast Overcast  
Wind Chill: 44°   Ceiling: 1000
Heat Index: 48°   Visibility: 9mi
Dew Point: 46°   Wind: 9mph
Humidity: 93%   Direction: 10°N
Pressure: 29.99"   Gusts: NA
Location:  42.08°N, 77.4°W
Report Text: KN38 220255Z AUTO 01008KT 9SM BKN010 OVC015 09/08 A2999 RMK AO2
Loading
Personal Weather Stations






























Interactive Weather Map
Tropical Storm Tracking
New forecast layout! Learn more

10-Day Weather Forecast

Advertisements
Track Severe Weather on mobile